Time;durP1;ratioP1;P1;durP2;ratioP2;P2;SDS_P1;SDS_P2;PMS_P1;PMS_P2;Temp;Humidity;BMP_temperature;BMP_pressure;BME280_temperature;BME280_humidity;BME280_pressure;Samples;Min_cycle;Max_cycle;Signal;HPM_P1;HPM_P2
2023/09/28 04:06:58;;;;;;;0.30;0.30;;;13.90;99.90;;;;;;5092837;22;20583;-61
2023/09/28 04:09:24;;;;;;;0.30;0.30;;;13.80;99.90;;;;;;5093313;28;20433;-59
2023/09/28 04:11:49;;;;;;;0.30;0.30;;;13.80;99.90;;;;;;5093632;28;20610;-60
2023/09/28 04:14:15;;;;;;;0.30;0.30;;;13.80;99.90;;;;;;5093150;28;20535;-60
2023/09/28 04:16:41;;;;;;;0.30;0.20;;;13.90;99.90;;;;;;5093249;28;20199;-60
2023/09/28 04:19:07;;;;;;;0.30;0.30;;;13.90;99.90;;;;;;5092806;28;20257;-60
2023/09/28 04:21:33;;;;;;;0.57;0.57;;;13.80;99.90;;;;;;5092929;28;20465;-61
2023/09/28 04:23:59;;;;;;;0.30;0.30;;;13.90;99.90;;;;;;5092523;28;20634;-60
2023/09/28 04:26:25;;;;;;;0.30;0.30;;;13.90;99.90;;;;;;5092999;28;20550;-61
2023/09/28 04:28:52;;;;;;;0.30;0.30;;;13.90;99.90;;;;;;5093165;28;20416;-60
2023/09/28 04:31:18;;;;;;;0.30;0.20;;;13.90;99.90;;;;;;5093173;28;20532;-60
2023/09/28 04:33:44;;;;;;;0.40;0.40;;;13.90;99.90;;;;;;5092741;28;20453;-60
2023/09/28 04:36:10;;;;;;;0.30;0.30;;;13.90;99.90;;;;;;5091914;28;20466;-60
2023/09/28 04:38:36;;;;;;;0.30;0.30;;;13.90;99.90;;;;;;5092901;28;20164;-60
2023/09/28 04:41:02;;;;;;;0.30;0.30;;;13.90;99.90;;;;;;5093015;28;20229;-60
2023/09/28 04:43:28;;;;;;;0.30;0.30;;;13.80;99.90;;;;;;5093015;28;20913;-60
2023/09/28 04:45:53;;;;;;;0.60;0.60;;;13.80;99.90;;;;;;5092415;28;20191;-61
2023/09/28 04:48:19;;;;;;;0.30;0.30;;;13.80;99.90;;;;;;5092851;28;20507;-61
2023/09/28 04:50:45;;;;;;;2.30;1.50;;;13.80;99.90;;;;;;5092687;28;20175;-60
2023/09/28 04:53:10;;;;;;;0.30;0.30;;;13.80;99.90;;;;;;5092703;28;20173;-60
2023/09/28 04:55:36;;;;;;;0.40;0.40;;;13.80;99.90;;;;;;5094956;28;20192;-60
2023/09/28 04:58:02;;;;;;;0.30;0.20;;;13.80;99.90;;;;;;5096780;28;20169;-60
2023/09/28 05:00:27;;;;;;;0.30;0.30;;;13.80;99.90;;;;;;5096966;28;20175;-61
2023/09/28 05:02:53;;;;;;;0.30;0.30;;;13.70;99.90;;;;;;5096579;28;20359;-61
2023/09/28 05:05:19;;;;;;;0.30;0.30;;;13.70;99.90;;;;;;5095652;28;20183;-61
2023/09/28 05:07:44;;;;;;;0.40;0.40;;;13.70;99.90;;;;;;5096773;28;20413;-60
2023/09/28 05:10:11;;;;;;;0.30;0.30;;;13.70;99.90;;;;;;5096380;28;20251;-60
2023/09/28 05:12:37;;;;;;;0.40;0.40;;;13.70;99.90;;;;;;5095725;28;20179;-61
2023/09/28 05:15:03;;;;;;;0.30;0.20;;;13.70;99.90;;;;;;5095760;28;20626;-60
2023/09/28 05:17:29;;;;;;;0.30;0.20;;;13.70;99.90;;;;;;5096098;28;20224;-60
2023/09/28 05:19:54;;;;;;;0.30;0.30;;;13.70;99.90;;;;;;5096179;28;20412;-60
2023/09/28 05:22:20;;;;;;;0.30;0.30;;;13.60;99.90;;;;;;5095952;28;20213;-60
2023/09/28 05:24:46;;;;;;;0.30;0.30;;;13.70;99.90;;;;;;5095563;28;20182;-60
2023/09/28 05:27:12;;;;;;;0.30;0.30;;;13.60;99.90;;;;;;5096031;28;20395;-60
2023/09/28 05:29:37;;;;;;;0.30;0.23;;;13.60;99.90;;;;;;5095631;28;20258;-60
2023/09/28 05:32:05;;;;;;;0.47;0.47;;;13.60;99.90;;;;;;5095284;28;20187;-60
2023/09/28 05:34:31;;;;;;;0.30;0.30;;;13.60;99.90;;;;;;5095361;28;20166;-60
2023/09/28 05:36:56;;;;;;;0.30;0.30;;;13.60;99.90;;;;;;5096001;28;20434;-60
2023/09/28 05:39:22;;;;;;;0.40;0.40;;;13.70;99.90;;;;;;5095957;28;20162;-60
2023/09/28 05:41:47;;;;;;;0.40;0.40;;;13.70;99.90;;;;;;5095614;28;20222;-60
2023/09/28 05:44:14;;;;;;;0.30;0.30;;;13.70;99.90;;;;;;5095268;28;20283;-60
2023/09/28 05:46:39;;;;;;;0.40;0.40;;;13.80;99.90;;;;;;5095515;28;20192;-60
2023/09/28 05:49:05;;;;;;;0.40;0.40;;;13.90;99.90;;;;;;5095483;28;20400;-60
2023/09/28 05:51:31;;;;;;;0.30;0.30;;;13.90;99.90;;;;;;5095553;28;20176;-60
2023/09/28 05:53:57;;;;;;;0.30;0.30;;;13.90;99.90;;;;;;5076854;28;20187;-62
2023/09/28 05:56:23;;;;;;;0.30;0.30;;;14.00;99.90;;;;;;5095352;28;20516;-60
2023/09/28 05:58:48;;;;;;;0.60;0.60;;;14.00;99.90;;;;;;5095496;28;20232;-60
2023/09/28 06:01:17;;;;;;;0.30;0.30;;;14.00;99.90;;;;;;5095248;28;20805;-60
2023/09/28 06:03:43;;;;;;;0.30;0.30;;;14.00;99.90;;;;;;5094777;28;20175;-60
2023/09/28 06:06:17;;;;;;;0.30;0.30;;;14.10;99.90;;;;;;5094813;28;20799;-60
2023/09/28 06:08:43;;;;;;;0.30;0.30;;;14.10;99.90;;;;;;5076954;28;20414;-60
2023/09/28 06:11:13;;;;;;;0.60;0.60;;;14.20;99.90;;;;;;5095228;28;20424;-60
2023/09/28 06:13:41;;;;;;;0.30;0.30;;;14.20;99.90;;;;;;5095005;28;20507;-60
2023/09/28 06:16:08;;;;;;;0.30;0.30;;;14.30;99.90;;;;;;5095188;28;20426;-60
2023/09/28 06:18:35;;;;;;;0.30;0.30;;;14.40;99.90;;;;;;5095057;28;20451;-61
2023/09/28 06:21:01;;;;;;;0.40;0.40;;;14.50;99.90;;;;;;5094962;28;20792;-60
2023/09/28 06:23:27;;;;;;;0.80;0.80;;;14.60;99.90;;;;;;5095169;28;20444;-61
2023/09/28 06:25:53;;;;;;;0.30;0.20;;;14.60;99.90;;;;;;5094411;28;20444;-60
2023/09/28 06:28:18;;;;;;;0.30;0.30;;;14.70;99.90;;;;;;5094839;28;20180;-60
2023/09/28 06:30:45;;;;;;;0.40;0.40;;;14.80;99.90;;;;;;5094953;28;20177;-60
2023/09/28 06:33:10;;;;;;;0.30;0.20;;;14.80;99.90;;;;;;5076571;28;20410;-60
2023/09/28 06:35:36;;;;;;;0.30;0.30;;;14.80;99.90;;;;;;5094149;28;20430;-60
2023/09/28 06:38:01;;;;;;;0.30;0.30;;;14.80;99.90;;;;;;5094767;28;20168;-61
2023/09/28 06:40:27;;;;;;;0.33;0.33;;;14.90;99.90;;;;;;5094561;28;20172;-61
2023/09/28 06:42:53;;;;;;;0.40;0.40;;;14.90;99.90;;;;;;5094615;28;20200;-60
2023/09/28 06:45:18;;;;;;;0.30;0.30;;;15.00;99.90;;;;;;5094080;28;20195;-61
2023/09/28 06:47:44;;;;;;;0.30;0.20;;;15.10;99.90;;;;;;5094474;28;20213;-62
2023/09/28 06:50:11;;;;;;;0.83;0.83;;;15.30;99.90;;;;;;5094482;28;20679;-62
2023/09/28 06:52:37;;;;;;;0.30;0.20;;;15.50;99.90;;;;;;5076403;28;20172;-62
2023/09/28 06:55:05;;;;;;;0.37;0.37;;;15.60;99.90;;;;;;5093871;28;20430;-62
2023/09/28 06:57:30;;;;;;;0.83;0.83;;;15.80;99.90;;;;;;5094462;28;20403;-62
2023/09/28 06:59:56;;;;;;;0.30;0.30;;;16.00;99.90;;;;;;5094201;28;20433;-62
2023/09/28 07:02:22;;;;;;;1.57;0.97;;;16.20;99.90;;;;;;5094242;28;20245;-62
2023/09/28 07:04:48;;;;;;;0.30;0.30;;;16.40;99.90;;;;;;5093178;28;20308;-62
2023/09/28 07:07:17;;;;;;;0.30;0.20;;;16.70;99.90;;;;;;5094143;28;20464;-62
2023/09/28 07:09:43;;;;;;;0.33;0.33;;;17.30;99.90;;;;;;5094269;28;20176;-62
2023/09/28 07:12:10;;;;;;;0.30;0.30;;;18.30;99.90;;;;;;5094003;28;20489;-63
2023/09/28 07:14:36;;;;;;;0.30;0.30;;;19.40;99.90;;;;;;5093605;28;20419;-63
2023/09/28 07:17:02;;;;;;;0.33;0.33;;;20.40;99.90;;;;;;5093446;28;20401;-63
2023/09/28 07:19:27;;;;;;;0.30;0.30;;;21.10;99.90;;;;;;5093784;28;20178;-63
2023/09/28 07:21:53;;;;;;;0.30;0.30;;;21.30;99.90;;;;;;5093994;28;20230;-63
2023/09/28 07:24:21;;;;;;;0.30;0.30;;;21.60;99.90;;;;;;5093622;28;20174;-63
2023/09/28 07:26:46;;;;;;;0.50;0.50;;;21.90;99.90;;;;;;5093592;28;20426;-64
2023/09/28 07:29:12;;;;;;;0.30;0.20;;;22.10;99.90;;;;;;5093747;28;20881;-63
2023/09/28 07:31:38;;;;;;;0.70;0.70;;;22.40;99.40;;;;;;5093793;28;20523;-63
2023/09/28 07:34:04;;;;;;;0.80;0.80;;;22.60;99.30;;;;;;5093753;28;20377;-63
2023/09/28 07:36:30;;;;;;;1.50;0.67;;;22.80;98.60;;;;;;5093735;28;20434;-64
2023/09/28 07:38:55;;;;;;;0.40;0.40;;;22.70;98.30;;;;;;5093603;28;20695;-63
2023/09/28 07:41:21;;;;;;;0.60;0.60;;;23.00;98.40;;;;;;5093490;28;20290;-63
2023/09/28 07:43:47;;;;;;;0.40;0.40;;;23.50;97.80;;;;;;5093486;28;20168;-63
2023/09/28 07:46:15;;;;;;;0.30;0.30;;;23.40;96.70;;;;;;5093524;28;20260;-64
2023/09/28 07:48:41;;;;;;;0.47;0.40;;;23.10;97.20;;;;;;5093613;28;20168;-63
2023/09/28 07:51:06;;;;;;;0.40;0.40;;;23.20;97.60;;;;;;5093507;28;20439;-63
2023/09/28 07:53:32;;;;;;;0.77;0.77;;;23.80;96.90;;;;;;5093718;28;20194;-63
2023/09/28 07:55:58;;;;;;;0.57;0.30;;;24.50;96.20;;;;;;5092955;28;20741;-63
2023/09/28 07:58:23;;;;;;;0.30;0.30;;;25.40;94.90;;;;;;5075232;28;20563;-64
2023/09/28 08:00:49;;;;;;;0.30;0.30;;;26.30;92.50;;;;;;5093605;28;20176;-64
2023/09/28 08:03:15;;;;;;;1.73;0.70;;;27.00;92.00;;;;;;5075360;28;20194;-64
2023/09/28 08:05:40;;;;;;;0.50;0.50;;;27.70;90.70;;;;;;5092857;28;20673;-64
2023/09/28 08:08:06;;;;;;;0.50;0.40;;;28.50;88.80;;;;;;5093488;28;20175;-64
2023/09/28 08:10:35;;;;;;;0.40;0.40;;;29.30;83.30;;;;;;5093397;28;20530;-64
2023/09/28 08:13:00;;;;;;;0.50;0.47;;;30.00;80.60;;;;;;5093256;28;20630;-64
2023/09/28 08:15:27;;;;;;;0.53;0.53;;;30.70;76.60;;;;;;5093023;28;20486;-64
2023/09/28 08:17:53;;;;;;;0.50;0.50;;;31.30;73.70;;;;;;5093430;28;20169;-64
2023/09/28 08:20:20;;;;;;;0.47;0.47;;;31.70;72.10;;;;;;5093072;28;20436;-64
2023/09/28 08:22:46;;;;;;;0.60;0.60;;;31.70;71.70;;;;;;5093181;28;20606;-64
2023/09/28 08:25:13;;;;;;;0.40;0.40;;;31.90;72.20;;;;;;5092725;28;20434;-64
2023/09/28 08:27:42;;;;;;;0.60;0.40;;;32.00;70.60;;;;;;5093203;28;20406;-63
2023/09/28 08:30:08;;;;;;;0.70;0.70;;;32.00;70.80;;;;;;5095000;28;20414;-62
2023/09/28 08:32:34;;;;;;;0.40;0.40;;;32.10;70.80;;;;;;5097219;28;20406;-62
2023/09/28 08:35:00;;;;;;;0.60;0.60;;;32.10;70.50;;;;;;5096656;28;20227;-63
2023/09/28 08:37:25;;;;;;;0.50;0.50;;;32.40;69.50;;;;;;5096807;28;20177;-62
2023/09/28 08:39:51;;;;;;;0.50;0.50;;;32.60;68.50;;;;;;5096512;28;20630;-63
2023/09/28 08:42:23;;;;;;;0.57;0.40;;;33.00;66.60;;;;;;5096732;28;20208;-63
2023/09/28 08:44:50;;;;;;;0.70;0.70;;;33.40;66.50;;;;;;5096505;28;20203;-62
2023/09/28 08:47:17;;;;;;;0.80;0.50;;;33.80;66.40;;;;;;5096783;28;20434;-63
2023/09/28 08:49:51;;;;;;;1.03;0.60;;;34.30;64.00;;;;;;5096485;28;20406;-63
2023/09/28 08:52:17;;;;;;;0.60;0.50;;;34.60;62.40;;;;;;5096755;28;20393;-63
2023/09/28 08:54:43;;;;;;;0.77;0.77;;;34.80;62.50;;;;;;5096209;28;20434;-63
2023/09/28 08:57:14;;;;;;;0.60;0.60;;;34.90;61.20;;;;;;5096730;28;20976;-62
2023/09/28 08:59:41;;;;;;;0.57;0.57;;;34.90;60.00;;;;;;5096761;28;20218;-63
2023/09/28 09:02:08;;;;;;;0.30;0.30;;;35.00;59.40;;;;;;5096580;28;20454;-63
2023/09/28 09:04:38;;;;;;;0.50;0.50;;;35.00;59.20;;;;;;5096070;28;20410;-63
2023/09/28 09:07:04;;;;;;;0.70;0.70;;;34.90;58.80;;;;;;5096314;28;20777;-62
2023/09/28 09:09:32;;;;;;;0.80;0.80;;;34.90;59.50;;;;;;5096290;28;20964;-63
2023/09/28 09:12:00;;;;;;;0.73;0.73;;;35.00;59.10;;;;;;5096350;28;20461;-63
2023/09/28 09:14:28;;;;;;;0.93;0.93;;;35.50;58.50;;;;;;5095812;28;20406;-63
2023/09/28 09:16:54;;;;;;;0.50;0.50;;;35.90;58.20;;;;;;5096269;28;20402;-63
2023/09/28 09:19:19;;;;;;;0.50;0.50;;;35.90;57.20;;;;;;5096234;28;20454;-63
2023/09/28 09:21:45;;;;;;;0.70;0.70;;;36.10;57.40;;;;;;5096121;28;20187;-63
2023/09/28 09:24:14;;;;;;;0.70;0.70;;;36.20;57.00;;;;;;5095880;28;20183;-63
2023/09/28 09:26:42;;;;;;;0.77;0.77;;;36.20;56.50;;;;;;5095910;28;20202;-63
2023/09/28 09:29:09;;;;;;;0.50;0.50;;;36.10;55.90;;;;;;5096068;28;20418;-63
2023/09/28 09:31:47;;;;;;;1.30;1.20;;;36.00;56.40;;;;;;5095810;28;20547;-63
2023/09/28 09:34:20;;;;;;;0.73;0.73;;;36.00;56.70;;;;;;5095331;28;20571;-64
2023/09/28 09:36:56;;;;;;;0.70;0.70;;;36.10;57.30;;;;;;5096012;28;20804;-63
2023/09/28 09:39:26;;;;;;;0.80;0.80;;;36.10;56.20;;;;;;5095931;28;20402;-64
2023/09/28 09:41:52;;;;;;;0.73;0.73;;;36.30;56.20;;;;;;5095607;28;20424;-64
2023/09/28 09:44:24;;;;;;;0.50;0.50;;;36.50;55.40;;;;;;5095943;28;20414;-63
2023/09/28 09:46:52;;;;;;;0.50;0.50;;;36.30;55.20;;;;;;5096017;28;20421;-63
2023/09/28 09:49:18;;;;;;;0.83;0.83;;;36.20;56.00;;;;;;5095582;28;20474;-63
2023/09/28 09:51:45;;;;;;;0.70;0.70;;;36.20;55.10;;;;;;5095648;28;20445;-63
2023/09/28 09:54:16;;;;;;;0.70;0.70;;;36.20;55.20;;;;;;5095197;28;20910;-62
2023/09/28 09:56:44;;;;;;;0.50;0.50;;;36.20;55.50;;;;;;5095516;28;20465;-62
2023/09/28 09:59:16;;;;;;;0.80;0.80;;;36.50;55.00;;;;;;5095324;28;20450;-62
2023/09/28 10:01:48;;;;;;;0.40;0.40;;;36.60;55.40;;;;;;5095337;28;20426;-63
2023/09/28 10:04:18;;;;;;;0.33;0.33;;;36.50;54.90;;;;;;5095155;28;20421;-63
2023/09/28 10:06:52;;;;;;;0.57;0.57;;;36.40;54.20;;;;;;5095010;28;20452;-63
2023/09/28 10:09:19;;;;;;;0.60;0.60;;;36.30;54.90;;;;;;5095371;28;20415;-63
2023/09/28 10:11:50;;;;;;;0.40;0.40;;;36.20;55.90;;;;;;5095266;28;20525;-63
2023/09/28 10:14:17;;;;;;;0.60;0.50;;;36.10;55.20;;;;;;5094680;28;20406;-61
2023/09/28 10:16:44;;;;;;;0.60;0.60;;;36.30;54.60;;;;;;5095337;28;20473;-61
2023/09/28 10:19:15;;;;;;;0.80;0.80;;;36.30;55.30;;;;;;5078689;28;20415;-61
2023/09/28 10:21:41;;;;;;;0.40;0.40;;;35.60;55.10;;;;;;5088016;28;20430;-62
2023/09/28 10:24:11;;;;;;;0.40;0.40;;;35.20;55.80;;;;;;5094809;28;20792;-61
2023/09/28 10:26:38;;;;;;;0.40;0.40;;;34.90;57.00;;;;;;5094840;28;20788;-62
2023/09/28 10:29:06;;;;;;;0.50;0.50;;;34.90;56.50;;;;;;5094813;28;20418;-62
2023/09/28 10:31:35;;;;;;;0.47;0.47;;;34.80;56.10;;;;;;5083661;28;20544;-62
2023/09/28 10:34:02;;;;;;;0.57;0.57;;;34.80;56.40;;;;;;5074177;28;20501;-61
2023/09/28 10:36:28;;;;;;;0.50;0.50;;;34.70;56.50;;;;;;5074261;28;20419;-62
2023/09/28 10:39:15;;;;;;;0.40;0.40;;;34.70;56.90;;;;;;5074339;28;20415;-61
2023/09/28 10:41:51;;;;;;;0.87;0.87;;;34.60;55.50;;;;;;5074207;28;20407;-61
2023/09/28 10:44:19;;;;;;;0.40;0.40;;;34.70;55.30;;;;;;5089373;28;20775;-62
2023/09/28 10:46:50;;;;;;;0.50;0.50;;;34.90;55.50;;;;;;5077586;28;20526;-62
2023/09/28 10:49:26;;;;;;;0.73;0.73;;;34.70;55.30;;;;;;5074132;28;20423;-62
2023/09/28 10:51:53;;;;;;;0.63;0.60;;;34.60;55.50;;;;;;5073438;28;20959;-62
2023/09/28 10:54:19;;;;;;;0.50;0.47;;;34.50;55.90;;;;;;5073490;28;20415;-62
2023/09/28 10:56:51;;;;;;;0.40;0.40;;;34.30;55.50;;;;;;5074497;28;20525;-62
2023/09/28 10:59:21;;;;;;;0.97;0.70;;;34.00;55.90;;;;;;5073979;28;20392;-62
2023/09/28 11:01:48;;;;;;;0.30;0.30;;;33.70;55.80;;;;;;5074066;28;20425;-62
2023/09/28 11:04:15;;;;;;;0.67;0.67;;;33.40;56.20;;;;;;5073532;28;20446;-61
2023/09/28 11:06:43;;;;;;;0.70;0.70;;;32.80;57.40;;;;;;5073708;28;20478;-61
2023/09/28 11:09:14;;;;;;;0.47;0.47;;;32.00;56.70;;;;;;5074018;28;20434;-61
2023/09/28 11:11:43;;;;;;;0.57;0.57;;;31.00;57.60;;;;;;5075575;28;20482;-62
2023/09/28 11:14:10;;;;;;;0.40;0.40;;;30.20;58.80;;;;;;5093558;28;20410;-61
2023/09/28 11:16:41;;;;;;;0.50;0.50;;;29.50;59.70;;;;;;5093926;28;20422;-61
2023/09/28 11:19:09;;;;;;;0.40;0.30;;;28.90;60.30;;;;;;5093962;28;20398;-62
2023/09/28 11:21:34;;;;;;;0.37;0.37;;;28.30;63.00;;;;;;5094034;28;20483;-62
2023/09/28 11:24:02;;;;;;;3.63;0.70;;;28.10;65.80;;;;;;5093545;28;20493;-63
2023/09/28 11:26:29;;;;;;;0.57;0.40;;;27.90;65.70;;;;;;5087540;28;20201;-62
2023/09/28 11:28:57;;;;;;;0.50;0.50;;;27.80;64.50;;;;;;5073528;28;20386;-62
2023/09/28 11:31:23;;;;;;;0.70;0.30;;;27.80;63.50;;;;;;5055999;28;20458;-62
2023/09/28 11:33:49;;;;;;;0.30;0.30;;;27.70;64.30;;;;;;5073240;28;20377;-61
2023/09/28 11:36:17;;;;;;;0.30;0.20;;;27.70;64.10;;;;;;5073472;28;20188;-62
2023/09/28 11:38:47;;;;;;;0.40;0.40;;;27.70;64.10;;;;;;5073274;28;20384;-62
2023/09/28 11:41:13;;;;;;;0.57;0.57;;;27.70;66.50;;;;;;5078660;28;20474;-62
2023/09/28 11:43:46;;;;;;;0.93;0.93;;;27.60;65.70;;;;;;5092875;28;20865;-61
2023/09/28 11:46:13;;;;;;;0.30;0.20;;;27.60;66.80;;;;;;5093632;28;20507;-66
2023/09/28 11:48:38;;;;;;;0.40;0.40;;;27.60;68.20;;;;;;5093743;28;20384;-62
2023/09/28 11:51:05;;;;;;;0.30;0.30;;;27.50;65.80;;;;;;5093404;28;20432;-61
2023/09/28 11:53:31;;;;;;;0.60;0.60;;;27.40;67.20;;;;;;5093620;28;20175;-61
2023/09/28 11:55:59;;;;;;;0.40;0.40;;;27.40;68.10;;;;;;5083397;28;20435;-61
2023/09/28 11:58:25;;;;;;;0.30;0.30;;;27.40;69.60;;;;;;5073316;28;20557;-61
2023/09/28 12:00:50;;;;;;;0.50;0.50;;;27.40;71.10;;;;;;5073012;28;20391;-61
2023/09/28 12:03:16;;;;;;;0.53;0.53;;;27.50;70.50;;;;;;5073856;28;20214;-62
2023/09/28 12:05:42;;;;;;;0.60;0.57;;;27.60;70.80;;;;;;5079093;28;20273;-61
2023/09/28 12:08:07;;;;;;;0.30;0.27;;;27.60;68.80;;;;;;5080032;28;20163;-62
2023/09/28 12:10:33;;;;;;;0.70;0.60;;;27.60;69.60;;;;;;5087753;28;20212;-62
2023/09/28 12:12:59;;;;;;;0.40;0.40;;;27.50;69.60;;;;;;5099911;28;20206;-62
2023/09/28 12:15:24;;;;;;;1.27;0.40;;;27.40;68.70;;;;;;5099555;28;20182;-62
2023/09/28 12:17:50;;;;;;;0.40;0.40;;;27.30;68.80;;;;;;5099960;28;20176;-64
2023/09/28 12:20:16;;;;;;;0.33;0.33;;;27.20;67.70;;;;;;5100083;28;20174;-62
2023/09/28 12:22:42;;;;;;;0.30;0.27;;;27.20;67.70;;;;;;5100052;28;20191;-62
2023/09/28 12:25:10;;;;;;;0.40;0.30;;;27.20;67.60;;;;;;5088956;28;20220;-62
2023/09/28 12:27:36;;;;;;;0.30;0.20;;;27.20;67.70;;;;;;5079663;28;20373;-63
2023/09/28 12:30:03;;;;;;;0.30;0.30;;;27.20;67.70;;;;;;5079797;28;20404;-62
2023/09/28 12:32:29;;;;;;;0.40;0.40;;;27.10;65.70;;;;;;5095219;28;20460;-65
2023/09/28 12:35:00;;;;;;;0.30;0.30;;;27.20;65.30;;;;;;5081126;28;20431;-63
2023/09/28 12:37:32;;;;;;;0.30;0.30;;;27.20;66.10;;;;;;5100048;28;20723;-64
2023/09/28 12:39:58;;;;;;;0.50;0.50;;;27.20;63.80;;;;;;5084653;28;20415;-64
2023/09/28 12:42:24;;;;;;;0.33;0.33;;;27.20;65.00;;;;;;5095636;28;20423;-64
2023/09/28 12:44:50;;;;;;;0.40;0.40;;;27.30;65.20;;;;;;5099272;28;20774;-64
2023/09/28 12:47:19;;;;;;;0.30;0.30;;;27.30;65.70;;;;;;5099721;28;20169;-65
2023/09/28 12:49:45;;;;;;;0.30;0.20;;;27.30;66.10;;;;;;5099571;28;20385;-64
2023/09/28 12:52:11;;;;;;;0.37;0.37;;;27.30;65.90;;;;;;5099859;28;20424;-65
2023/09/28 12:54:37;;;;;;;0.30;0.30;;;27.20;65.40;;;;;;5085143;28;20397;-63
2023/09/28 12:57:02;;;;;;;1.13;1.13;;;27.20;65.10;;;;;;5079369;28;20632;-65
2023/09/28 12:59:28;;;;;;;0.30;0.30;;;27.30;65.40;;;;;;5079582;28;20249;-65
2023/09/28 13:01:54;;;;;;;0.33;0.33;;;27.30;65.40;;;;;;5079283;28;20448;-63
2023/09/28 13:04:19;;;;;;;0.30;0.20;;;27.40;64.50;;;;;;5079265;28;20205;-65
2023/09/28 13:06:45;;;;;;;0.30;0.30;;;27.40;64.50;;;;;;5085362;28;20299;-63
2023/09/28 13:09:10;;;;;;;0.30;0.20;;;27.40;64.70;;;;;;5105751;28;20184;-63
2023/09/28 13:11:37;;;;;;;0.30;0.20;;;27.40;64.70;;;;;;5099034;28;20278;-64
2023/09/28 13:14:05;;;;;;;0.30;0.30;;;27.50;64.50;;;;;;5099154;28;20432;-64
2023/09/28 13:16:31;;;;;;;0.40;0.30;;;27.50;64.00;;;;;;5096267;28;20237;-64
2023/09/28 13:18:59;;;;;;;0.30;0.30;;;27.40;63.90;;;;;;5077973;28;20418;-63
2023/09/28 13:21:27;;;;;;;0.30;0.30;;;27.40;64.80;;;;;;5096174;28;20209;-64
2023/09/28 13:23:53;;;;;;;0.30;0.30;;;27.40;64.70;;;;;;5080015;28;20454;-64
2023/09/28 13:26:19;;;;;;;0.40;0.40;;;27.40;64.50;;;;;;5075891;28;20440;-64
2023/09/28 13:28:45;;;;;;;0.30;0.30;;;27.40;64.40;;;;;;5075905;28;20384;-63
2023/09/28 13:31:11;;;;;;;0.67;0.67;;;27.40;64.60;;;;;;5088286;28;20462;-64
2023/09/28 13:33:38;;;;;;;0.30;0.30;;;27.40;64.30;;;;;;5096136;28;20739;-64
2023/09/28 13:36:06;;;;;;;0.30;0.30;;;27.40;64.90;;;;;;5095969;28;20595;-63
2023/09/28 13:38:34;;;;;;;0.60;0.60;;;27.50;63.90;;;;;;5077633;28;20420;-64
2023/09/28 13:41:00;;;;;;;0.40;0.40;;;27.50;61.40;;;;;;5075710;28;20380;-63
2023/09/28 13:43:26;;;;;;;0.30;0.30;;;27.50;62.10;;;;;;5075804;28;20397;-64
2023/09/28 13:45:52;;;;;;;0.67;0.67;;;27.50;61.80;;;;;;5075122;28;20942;-62
2023/09/28 13:48:18;;;;;;;0.30;0.20;;;27.50;61.40;;;;;;5075493;28;20186;-64
2023/09/28 13:50:44;;;;;;;0.40;0.40;;;27.50;62.50;;;;;;5075269;28;20639;-64
2023/09/28 13:53:10;;;;;;;0.30;0.30;;;27.60;63.20;;;;;;5092398;28;20459;-63
2023/09/28 13:55:36;;;;;;;0.30;0.30;;;27.60;63.20;;;;;;5095211;28;20427;-63
2023/09/28 13:58:02;;;;;;;0.47;0.30;;;27.60;61.90;;;;;;5095483;28;20427;-64
2023/09/28 14:00:31;;;;;;;0.40;0.40;;;27.50;61.70;;;;;;5095049;28;20387;-65
2023/09/28 14:02:58;;;;;;;0.77;0.60;;;27.50;62.10;;;;;;5095649;28;20420;-63
2023/09/28 14:05:25;;;;;;;0.40;0.40;;;27.50;62.80;;;;;;5094827;28;20409;-64
2023/09/28 14:07:50;;;;;;;0.40;0.40;;;27.50;63.70;;;;;;5095175;28;20489;-62
2023/09/28 14:10:17;;;;;;;0.30;0.30;;;27.50;62.00;;;;;;5095452;28;20470;-64
2023/09/28 14:12:44;;;;;;;0.87;0.87;;;27.40;62.30;;;;;;5095079;28;20209;-64
2023/09/28 14:15:11;;;;;;;0.30;0.20;;;27.40;62.20;;;;;;5094582;28;20445;-63
2023/09/28 14:17:36;;;;;;;0.60;0.60;;;27.30;62.20;;;;;;5095258;28;20386;-63
2023/09/28 14:20:05;;;;;;;0.40;0.40;;;27.30;62.90;;;;;;5094538;28;20946;-63
2023/09/28 14:22:30;;;;;;;0.30;0.30;;;27.20;62.80;;;;;;5074491;28;20189;-63
2023/09/28 14:24:56;;;;;;;0.30;0.30;;;27.20;62.40;;;;;;5074076;28;20457;-63
2023/09/28 14:27:22;;;;;;;0.50;0.40;;;27.20;61.70;;;;;;5092468;28;20173;-64
2023/09/28 14:29:48;;;;;;;0.30;0.30;;;27.10;59.20;;;;;;5095033;28;20445;-63
2023/09/28 14:32:15;;;;;;;0.30;0.20;;;27.10;59.10;;;;;;5094984;28;20515;-64
2023/09/28 14:34:41;;;;;;;0.30;0.27;;;27.20;59.10;;;;;;5094254;28;20397;-64
2023/09/28 14:37:07;;;;;;;0.40;0.40;;;27.20;59.60;;;;;;5076753;28;20927;-63
2023/09/28 14:39:33;;;;;;;0.30;0.27;;;27.20;60.10;;;;;;5076755;28;20630;-64
2023/09/28 14:41:59;;;;;;;0.50;0.43;;;27.20;60.70;;;;;;5094172;28;20569;-63
2023/09/28 14:44:25;;;;;;;0.30;0.30;;;27.30;60.70;;;;;;5094317;28;20443;-64
2023/09/28 14:46:50;;;;;;;0.40;0.33;;;27.30;60.90;;;;;;5094988;28;20634;-63
2023/09/28 14:49:16;;;;;;;0.30;0.30;;;27.30;60.40;;;;;;5079199;28;20178;-63
2023/09/28 14:51:41;;;;;;;0.30;0.27;;;27.40;59.50;;;;;;5074183;28;20201;-64
2023/09/28 14:54:07;;;;;;;0.40;0.40;;;27.30;59.80;;;;;;5073756;28;20177;-64
2023/09/28 14:56:33;;;;;;;0.30;0.20;;;27.30;60.20;;;;;;5077625;28;20227;-63
2023/09/28 14:58:59;;;;;;;0.30;0.20;;;27.30;59.80;;;;;;5094350;28;20265;-62
2023/09/28 15:01:25;;;;;;;0.47;0.40;;;27.30;59.80;;;;;;5094253;28;20177;-63
2023/09/28 15:03:51;;;;;;;0.30;0.20;;;27.30;59.50;;;;;;5094156;28;20484;-63
2023/09/28 15:06:17;;;;;;;0.40;0.30;;;27.30;59.20;;;;;;5094117;28;20513;-64
2023/09/28 15:08:42;;;;;;;0.30;0.30;;;27.30;63.50;;;;;;5094458;28;20185;-63
2023/09/28 15:11:08;;;;;;;0.30;0.27;;;27.30;65.50;;;;;;5073308;28;20190;-63
2023/09/28 15:13:34;;;;;;;0.50;0.40;;;27.30;67.30;;;;;;5073847;28;20507;-64
2023/09/28 15:16:00;;;;;;;0.40;0.30;;;27.20;68.30;;;;;;5073331;28;20443;-63
2023/09/28 15:18:26;;;;;;;0.40;0.30;;;27.10;68.90;;;;;;5073611;28;20183;-63
2023/09/28 15:20:51;;;;;;;0.30;0.30;;;27.10;69.90;;;;;;5073876;28;20177;-64
2023/09/28 15:23:17;;;;;;;0.30;0.30;;;27.00;70.60;;;;;;5073790;28;20184;-63
2023/09/28 15:25:43;;;;;;;0.93;0.93;;;27.00;70.60;;;;;;5073813;28;20208;-64
2023/09/28 15:28:09;;;;;;;0.60;0.37;;;27.00;71.40;;;;;;5093750;28;20305;-64
2023/09/28 15:30:39;;;;;;;0.40;0.30;;;26.90;72.50;;;;;;5093697;28;20742;-64
2023/09/28 15:33:05;;;;;;;0.53;0.53;;;26.80;72.70;;;;;;5093953;28;20209;-65
2023/09/28 15:35:32;;;;;;;0.30;0.30;;;26.80;73.00;;;;;;5093291;28;20408;-64
2023/09/28 15:37:58;;;;;;;0.60;0.50;;;26.70;73.10;;;;;;5075455;28;20871;-63
2023/09/28 15:40:23;;;;;;;0.50;0.50;;;26.60;72.70;;;;;;5093053;28;20422;-65
2023/09/28 15:42:49;;;;;;;0.50;0.50;;;26.50;73.20;;;;;;5073848;28;20411;-63
2023/09/28 15:45:14;;;;;;;0.63;0.63;;;26.50;74.70;;;;;;5073137;28;20288;-63
2023/09/28 15:47:41;;;;;;;0.50;0.50;;;26.40;74.90;;;;;;5073506;28;20169;-63
2023/09/28 15:50:09;;;;;;;0.47;0.47;;;26.30;75.60;;;;;;5073484;28;20202;-63
2023/09/28 15:52:34;;;;;;;0.83;0.43;;;26.30;76.00;;;;;;5073461;28;20478;-64
2023/09/28 15:55:01;;;;;;;1.00;0.97;;;26.20;76.20;;;;;;5072647;28;20397;-63
2023/09/28 15:57:27;;;;;;;0.30;0.30;;;26.10;76.20;;;;;;5092461;28;20408;-63
2023/09/28 15:59:53;;;;;;;0.50;0.43;;;26.10;76.20;;;;;;5093369;28;20751;-63
2023/09/28 16:02:18;;;;;;;0.30;0.20;;;26.00;76.50;;;;;;5093292;28;20377;-64
2023/09/28 16:04:45;;;;;;;0.30;0.30;;;26.00;76.60;;;;;;5092471;28;20433;-63
2023/09/28 16:07:11;;;;;;;0.30;0.30;;;26.00;76.90;;;;;;5093229;28;20184;-64
2023/09/28 16:09:37;;;;;;;0.73;0.73;;;25.90;77.50;;;;;;5086964;28;20447;-64
2023/09/28 16:12:03;;;;;;;0.30;0.20;;;25.80;77.80;;;;;;5073150;28;20200;-64
2023/09/28 16:14:28;;;;;;;0.33;0.33;;;25.70;78.30;;;;;;5072520;28;20465;-66
2023/09/28 16:16:54;;;;;;;0.70;0.60;;;25.60;78.70;;;;;;5073089;28;20490;-64
2023/09/28 16:19:20;;;;;;;0.30;0.30;;;25.60;79.50;;;;;;5086637;28;20218;-64
2023/09/28 16:21:46;;;;;;;0.40;0.30;;;25.40;80.20;;;;;;5074908;28;20179;-63
2023/09/28 16:24:12;;;;;;;0.30;0.30;;;25.30;80.70;;;;;;5092972;28;20221;-62
2023/09/28 16:26:38;;;;;;;0.30;0.30;;;25.20;80.80;;;;;;5092966;28;20502;-63
2023/09/28 16:29:04;;;;;;;0.40;0.40;;;25.10;81.10;;;;;;5093381;28;20396;-63
2023/09/28 16:31:29;;;;;;;0.67;0.67;;;25.10;81.50;;;;;;5093228;28;20208;-63
2023/09/28 16:33:55;;;;;;;0.40;0.40;;;25.00;82.30;;;;;;5092852;28;20221;-63
2023/09/28 16:36:20;;;;;;;0.40;0.40;;;24.80;82.60;;;;;;5075427;28;20607;-63
2023/09/28 16:38:46;;;;;;;0.50;0.50;;;24.70;83.00;;;;;;5072866;28;20184;-62
2023/09/28 16:41:13;;;;;;;0.30;0.30;;;24.70;83.50;;;;;;5072970;28;20173;-63
2023/09/28 16:43:39;;;;;;;0.43;0.43;;;24.50;83.90;;;;;;5072621;28;20169;-63
2023/09/28 16:46:05;;;;;;;0.30;0.30;;;24.40;84.10;;;;;;5077620;28;20438;-62
2023/09/28 16:48:31;;;;;;;0.80;0.80;;;24.30;84.80;;;;;;5092972;28;20421;-61
2023/09/28 16:50:57;;;;;;;0.30;0.30;;;24.30;84.80;;;;;;5094494;28;20180;-62